sensor_id;sensor_type;location;lat;lon;timestamp;P1;durP1;ratioP1;P2;durP2;ratioP2
20431;SDS011;10375;49.136;10.366;2022-11-20T00:01:29;13.10;;;8.17;;
20431;SDS011;10375;49.136;10.366;2022-11-20T00:03:57;10.80;;;8.07;;
20431;SDS011;10375;49.136;10.366;2022-11-20T00:06:25;12.40;;;8.07;;
20431;SDS011;10375;49.136;10.366;2022-11-20T00:08:54;12.03;;;7.60;;
20431;SDS011;10375;49.136;10.366;2022-11-20T00:11:23;13.10;;;8.57;;
20431;SDS011;10375;49.136;10.366;2022-11-20T00:13:53;12.30;;;7.47;;
20431;SDS011;10375;49.136;10.366;2022-11-20T00:16:22;12.50;;;7.77;;
20431;SDS011;10375;49.136;10.366;2022-11-20T00:18:50;12.47;;;8.83;;
20431;SDS011;10375;49.136;10.366;2022-11-20T00:21:19;11.07;;;7.83;;
20431;SDS011;10375;49.136;10.366;2022-11-20T00:23:51;12.17;;;8.07;;
20431;SDS011;10375;49.136;10.366;2022-11-20T00:26:21;11.80;;;8.03;;
20431;SDS011;10375;49.136;10.366;2022-11-20T00:28:50;10.93;;;8.10;;
20431;SDS011;10375;49.136;10.366;2022-11-20T00:31:19;13.27;;;9.03;;
20431;SDS011;10375;49.136;10.366;2022-11-20T00:33:46;13.37;;;8.97;;
20431;SDS011;10375;49.136;10.366;2022-11-20T00:36:15;12.37;;;7.93;;
20431;SDS011;10375;49.136;10.366;2022-11-20T00:38:43;16.83;;;9.97;;
20431;SDS011;10375;49.136;10.366;2022-11-20T00:41:12;12.60;;;8.73;;
20431;SDS011;10375;49.136;10.366;2022-11-20T00:43:40;13.67;;;9.07;;
20431;SDS011;10375;49.136;10.366;2022-11-20T00:46:12;16.33;;;9.87;;
20431;SDS011;10375;49.136;10.366;2022-11-20T00:48:41;17.63;;;11.07;;
20431;SDS011;10375;49.136;10.366;2022-11-20T00:51:09;13.97;;;8.70;;
20431;SDS011;10375;49.136;10.366;2022-11-20T00:53:39;15.77;;;9.67;;
20431;SDS011;10375;49.136;10.366;2022-11-20T00:56:07;12.50;;;8.80;;
20431;SDS011;10375;49.136;10.366;2022-11-20T00:58:37;13.27;;;8.67;;
20431;SDS011;10375;49.136;10.366;2022-11-20T01:03:41;15.80;;;9.03;;
20431;SDS011;10375;49.136;10.366;2022-11-20T01:06:10;11.93;;;7.60;;
20431;SDS011;10375;49.136;10.366;2022-11-20T01:08:43;11.60;;;8.53;;
20431;SDS011;10375;49.136;10.366;2022-11-20T01:11:13;14.97;;;9.67;;
20431;SDS011;10375;49.136;10.366;2022-11-20T01:13:41;12.30;;;8.60;;
20431;SDS011;10375;49.136;10.366;2022-11-20T01:16:09;13.93;;;8.80;;
20431;SDS011;10375;49.136;10.366;2022-11-20T01:18:48;12.97;;;8.37;;
20431;SDS011;10375;49.136;10.366;2022-11-20T01:21:19;13.33;;;8.73;;
20431;SDS011;10375;49.136;10.366;2022-11-20T01:23:48;14.87;;;9.10;;
20431;SDS011;10375;49.136;10.366;2022-11-20T01:26:21;15.20;;;9.00;;
20431;SDS011;10375;49.136;10.366;2022-11-20T01:28:50;16.93;;;8.80;;
20431;SDS011;10375;49.136;10.366;2022-11-20T01:33:50;12.20;;;8.13;;
20431;SDS011;10375;49.136;10.366;2022-11-20T01:36:18;15.30;;;8.37;;
20431;SDS011;10375;49.136;10.366;2022-11-20T01:38:47;11.90;;;7.73;;
20431;SDS011;10375;49.136;10.366;2022-11-20T01:41:17;13.73;;;9.00;;
20431;SDS011;10375;49.136;10.366;2022-11-20T01:44:03;12.27;;;8.20;;
20431;SDS011;10375;49.136;10.366;2022-11-20T01:46:37;12.97;;;8.77;;
20431;SDS011;10375;49.136;10.366;2022-11-20T01:49:11;14.13;;;8.23;;
20431;SDS011;10375;49.136;10.366;2022-11-20T01:54:19;10.83;;;7.77;;
20431;SDS011;10375;49.136;10.366;2022-11-20T01:56:51;13.47;;;8.77;;
20431;SDS011;10375;49.136;10.366;2022-11-20T01:59:22;10.47;;;7.77;;
20431;SDS011;10375;49.136;10.366;2022-11-20T02:01:51;11.10;;;8.43;;
20431;SDS011;10375;49.136;10.366;2022-11-20T02:04:19;13.80;;;7.90;;
20431;SDS011;10375;49.136;10.366;2022-11-20T02:06:48;11.30;;;7.77;;
20431;SDS011;10375;49.136;10.366;2022-11-20T02:09:20;13.37;;;8.57;;
20431;SDS011;10375;49.136;10.366;2022-11-20T02:11:48;10.00;;;7.40;;
20431;SDS011;10375;49.136;10.366;2022-11-20T02:14:15;11.20;;;8.30;;
20431;SDS011;10375;49.136;10.366;2022-11-20T02:16:46;10.83;;;7.93;;
20431;SDS011;10375;49.136;10.366;2022-11-20T02:19:27;13.30;;;8.50;;
20431;SDS011;10375;49.136;10.366;2022-11-20T02:22:03;15.60;;;9.50;;
20431;SDS011;10375;49.136;10.366;2022-11-20T02:24:39;14.47;;;9.23;;
20431;SDS011;10375;49.136;10.366;2022-11-20T02:27:09;15.73;;;9.93;;
20431;SDS011;10375;49.136;10.366;2022-11-20T02:32:30;13.70;;;9.07;;
20431;SDS011;10375;49.136;10.366;2022-11-20T02:37:45;12.60;;;7.90;;
20431;SDS011;10375;49.136;10.366;2022-11-20T02:40:14;13.67;;;9.30;;
20431;SDS011;10375;49.136;10.366;2022-11-20T02:42:42;13.80;;;8.87;;
20431;SDS011;10375;49.136;10.366;2022-11-20T02:45:09;12.33;;;8.70;;
20431;SDS011;10375;49.136;10.366;2022-11-20T02:47:36;11.53;;;8.07;;
20431;SDS011;10375;49.136;10.366;2022-11-20T02:50:04;14.43;;;8.17;;
20431;SDS011;10375;49.136;10.366;2022-11-20T02:52:32;13.10;;;8.70;;
20431;SDS011;10375;49.136;10.366;2022-11-20T02:54:58;12.67;;;7.93;;
20431;SDS011;10375;49.136;10.366;2022-11-20T02:57:26;12.63;;;7.87;;
20431;SDS011;10375;49.136;10.366;2022-11-20T02:59:54;12.57;;;7.90;;
20431;SDS011;10375;49.136;10.366;2022-11-20T03:02:21;18.67;;;9.13;;
20431;SDS011;10375;49.136;10.366;2022-11-20T03:04:48;14.03;;;8.83;;
20431;SDS011;10375;49.136;10.366;2022-11-20T03:07:15;14.83;;;9.33;;
20431;SDS011;10375;49.136;10.366;2022-11-20T03:09:42;15.27;;;8.93;;
20431;SDS011;10375;49.136;10.366;2022-11-20T03:12:09;12.13;;;9.43;;
20431;SDS011;10375;49.136;10.366;2022-11-20T03:14:36;14.00;;;10.50;;
20431;SDS011;10375;49.136;10.366;2022-11-20T03:17:03;14.63;;;10.30;;
20431;SDS011;10375;49.136;10.366;2022-11-20T03:19:30;17.10;;;10.83;;
20431;SDS011;10375;49.136;10.366;2022-11-20T03:21:57;15.90;;;10.07;;
20431;SDS011;10375;49.136;10.366;2022-11-20T03:24:24;17.10;;;11.10;;
20431;SDS011;10375;49.136;10.366;2022-11-20T03:26:52;17.47;;;10.73;;
20431;SDS011;10375;49.136;10.366;2022-11-20T03:29:19;20.87;;;13.00;;
20431;SDS011;10375;49.136;10.366;2022-11-20T03:31:46;17.33;;;12.67;;
20431;SDS011;10375;49.136;10.366;2022-11-20T03:34:13;22.37;;;12.53;;
20431;SDS011;10375;49.136;10.366;2022-11-20T03:36:40;18.03;;;12.37;;
20431;SDS011;10375;49.136;10.366;2022-11-20T03:39:09;22.53;;;13.23;;
20431;SDS011;10375;49.136;10.366;2022-11-20T03:41:37;24.37;;;14.07;;
20431;SDS011;10375;49.136;10.366;2022-11-20T03:44:07;22.33;;;13.23;;
20431;SDS011;10375;49.136;10.366;2022-11-20T03:46:35;22.03;;;13.30;;
20431;SDS011;10375;49.136;10.366;2022-11-20T03:49:03;25.97;;;14.67;;
20431;SDS011;10375;49.136;10.366;2022-11-20T03:51:31;22.70;;;13.53;;
20431;SDS011;10375;49.136;10.366;2022-11-20T03:54:01;25.47;;;15.20;;
20431;SDS011;10375;49.136;10.366;2022-11-20T03:56:34;17.60;;;13.13;;
20431;SDS011;10375;49.136;10.366;2022-11-20T03:59:02;20.23;;;13.53;;
20431;SDS011;10375;49.136;10.366;2022-11-20T04:01:31;23.90;;;15.50;;
20431;SDS011;10375;49.136;10.366;2022-11-20T04:04:00;23.93;;;14.13;;
20431;SDS011;10375;49.136;10.366;2022-11-20T04:06:29;24.83;;;14.00;;
20431;SDS011;10375;49.136;10.366;2022-11-20T04:08:59;18.70;;;12.83;;
20431;SDS011;10375;49.136;10.366;2022-11-20T04:11:30;34.17;;;14.80;;
20431;SDS011;10375;49.136;10.366;2022-11-20T04:14:00;27.47;;;14.83;;
20431;SDS011;10375;49.136;10.366;2022-11-20T04:16:29;23.93;;;14.40;;
20431;SDS011;10375;49.136;10.366;2022-11-20T04:18:58;24.50;;;14.27;;
20431;SDS011;10375;49.136;10.366;2022-11-20T04:21:27;20.27;;;14.23;;
20431;SDS011;10375;49.136;10.366;2022-11-20T04:23:54;17.73;;;12.60;;
20431;SDS011;10375;49.136;10.366;2022-11-20T04:26:23;20.87;;;13.90;;
20431;SDS011;10375;49.136;10.366;2022-11-20T04:28:51;22.73;;;14.67;;
20431;SDS011;10375;49.136;10.366;2022-11-20T04:31:29;21.67;;;14.50;;
20431;SDS011;10375;49.136;10.366;2022-11-20T04:34:02;20.40;;;13.67;;
20431;SDS011;10375;49.136;10.366;2022-11-20T04:36:30;21.80;;;14.10;;
20431;SDS011;10375;49.136;10.366;2022-11-20T04:38:59;17.97;;;13.23;;
20431;SDS011;10375;49.136;10.366;2022-11-20T04:41:28;19.77;;;13.07;;
20431;SDS011;10375;49.136;10.366;2022-11-20T04:43:58;23.10;;;13.47;;
20431;SDS011;10375;49.136;10.366;2022-11-20T04:46:29;19.70;;;13.20;;
20431;SDS011;10375;49.136;10.366;2022-11-20T04:48:58;21.60;;;12.83;;
20431;SDS011;10375;49.136;10.366;2022-11-20T04:51:26;17.10;;;12.83;;
20431;SDS011;10375;49.136;10.366;2022-11-20T04:53:53;21.70;;;13.23;;
20431;SDS011;10375;49.136;10.366;2022-11-20T04:56:20;21.30;;;12.37;;
20431;SDS011;10375;49.136;10.366;2022-11-20T04:58:48;20.50;;;12.33;;
20431;SDS011;10375;49.136;10.366;2022-11-20T05:01:16;17.37;;;11.97;;
20431;SDS011;10375;49.136;10.366;2022-11-20T05:03:45;19.27;;;12.27;;
20431;SDS011;10375;49.136;10.366;2022-11-20T05:06:14;17.13;;;12.43;;
20431;SDS011;10375;49.136;10.366;2022-11-20T05:08:43;17.47;;;13.00;;
20431;SDS011;10375;49.136;10.366;2022-11-20T05:11:14;18.50;;;12.53;;
20431;SDS011;10375;49.136;10.366;2022-11-20T05:13:43;17.20;;;11.70;;
20431;SDS011;10375;49.136;10.366;2022-11-20T05:16:14;21.63;;;11.93;;
20431;SDS011;10375;49.136;10.366;2022-11-20T05:18:43;17.93;;;13.13;;
20431;SDS011;10375;49.136;10.366;2022-11-20T05:21:10;15.77;;;11.27;;
20431;SDS011;10375;49.136;10.366;2022-11-20T05:23:38;16.10;;;12.00;;
20431;SDS011;10375;49.136;10.366;2022-11-20T05:26:06;23.90;;;12.17;;
20431;SDS011;10375;49.136;10.366;2022-11-20T05:28:34;18.00;;;10.80;;
20431;SDS011;10375;49.136;10.366;2022-11-20T05:31:07;19.80;;;10.70;;
20431;SDS011;10375;49.136;10.366;2022-11-20T05:33:47;11.97;;;9.10;;
20431;SDS011;10375;49.136;10.366;2022-11-20T05:36:14;19.77;;;10.60;;
20431;SDS011;10375;49.136;10.366;2022-11-20T05:38:41;27.07;;;10.00;;
20431;SDS011;10375;49.136;10.366;2022-11-20T05:41:13;19.77;;;9.50;;
20431;SDS011;10375;49.136;10.366;2022-11-20T05:43:45;13.23;;;9.47;;
20431;SDS011;10375;49.136;10.366;2022-11-20T05:46:14;35.77;;;10.03;;
20431;SDS011;10375;49.136;10.366;2022-11-20T05:48:42;20.07;;;8.63;;
20431;SDS011;10375;49.136;10.366;2022-11-20T05:51:11;17.30;;;8.63;;
20431;SDS011;10375;49.136;10.366;2022-11-20T05:53:41;13.17;;;8.00;;
20431;SDS011;10375;49.136;10.366;2022-11-20T05:56:15;25.47;;;8.50;;
20431;SDS011;10375;49.136;10.366;2022-11-20T05:58:45;10.93;;;7.97;;
20431;SDS011;10375;49.136;10.366;2022-11-20T06:03:44;10.97;;;7.40;;
20431;SDS011;10375;49.136;10.366;2022-11-20T06:06:12;15.67;;;7.00;;
20431;SDS011;10375;49.136;10.366;2022-11-20T06:08:40;8.67;;;6.77;;
20431;SDS011;10375;49.136;10.366;2022-11-20T06:11:08;11.37;;;6.87;;
20431;SDS011;10375;49.136;10.366;2022-11-20T06:13:36;8.00;;;6.50;;
20431;SDS011;10375;49.136;10.366;2022-11-20T06:16:07;10.03;;;6.67;;
20431;SDS011;10375;49.136;10.366;2022-11-20T06:18:35;12.83;;;7.07;;
20431;SDS011;10375;49.136;10.366;2022-11-20T06:21:03;7.47;;;6.67;;
20431;SDS011;10375;49.136;10.366;2022-11-20T06:23:33;20.67;;;7.07;;
20431;SDS011;10375;49.136;10.366;2022-11-20T06:26:02;9.37;;;6.67;;
20431;SDS011;10375;49.136;10.366;2022-11-20T06:28:31;12.93;;;6.90;;
20431;SDS011;10375;49.136;10.366;2022-11-20T06:30:58;8.33;;;6.17;;
20431;SDS011;10375;49.136;10.366;2022-11-20T06:33:26;12.80;;;6.20;;
20431;SDS011;10375;49.136;10.366;2022-11-20T06:35:56;21.23;;;7.63;;
20431;SDS011;10375;49.136;10.366;2022-11-20T06:38:34;81.10;;;9.73;;
20431;SDS011;10375;49.136;10.366;2022-11-20T06:41:01;12.87;;;7.00;;
20431;SDS011;10375;49.136;10.366;2022-11-20T06:43:30;23.10;;;8.32;;
20431;SDS011;10375;49.136;10.366;2022-11-20T06:45:57;11.33;;;7.47;;
20431;SDS011;10375;49.136;10.366;2022-11-20T06:48:26;10.03;;;8.23;;
20431;SDS011;10375;49.136;10.366;2022-11-20T06:50:54;11.33;;;8.43;;
20431;SDS011;10375;49.136;10.366;2022-11-20T06:53:22;12.67;;;9.40;;
20431;SDS011;10375;49.136;10.366;2022-11-20T06:55:50;18.23;;;10.20;;
20431;SDS011;10375;49.136;10.366;2022-11-20T06:58:18;11.07;;;7.77;;
20431;SDS011;10375;49.136;10.366;2022-11-20T07:00:45;7.57;;;6.60;;
20431;SDS011;10375;49.136;10.366;2022-11-20T07:03:12;8.73;;;5.77;;
20431;SDS011;10375;49.136;10.366;2022-11-20T07:05:39;9.37;;;6.23;;
20431;SDS011;10375;49.136;10.366;2022-11-20T07:08:06;8.33;;;5.97;;
20431;SDS011;10375;49.136;10.366;2022-11-20T07:10:34;7.37;;;5.57;;
20431;SDS011;10375;49.136;10.366;2022-11-20T07:13:02;8.30;;;5.93;;
20431;SDS011;10375;49.136;10.366;2022-11-20T07:15:30;6.63;;;5.30;;
20431;SDS011;10375;49.136;10.366;2022-11-20T07:18:00;6.77;;;5.10;;
20431;SDS011;10375;49.136;10.366;2022-11-20T07:20:30;7.87;;;5.20;;
20431;SDS011;10375;49.136;10.366;2022-11-20T07:22:58;6.77;;;4.97;;
20431;SDS011;10375;49.136;10.366;2022-11-20T07:25:25;6.07;;;5.20;;
20431;SDS011;10375;49.136;10.366;2022-11-20T07:27:56;10.17;;;5.20;;
20431;SDS011;10375;49.136;10.366;2022-11-20T07:30:27;6.33;;;5.33;;
20431;SDS011;10375;49.136;10.366;2022-11-20T07:32:54;9.50;;;5.60;;
20431;SDS011;10375;49.136;10.366;2022-11-20T07:35:23;7.43;;;5.43;;
20431;SDS011;10375;49.136;10.366;2022-11-20T07:37:50;11.43;;;7.87;;
20431;SDS011;10375;49.136;10.366;2022-11-20T07:40:17;8.53;;;6.40;;
20431;SDS011;10375;49.136;10.366;2022-11-20T07:42:52;16.30;;;11.77;;
20431;SDS011;10375;49.136;10.366;2022-11-20T07:45:21;12.73;;;10.17;;
20431;SDS011;10375;49.136;10.366;2022-11-20T07:47:50;10.17;;;7.00;;
20431;SDS011;10375;49.136;10.366;2022-11-20T07:50:18;10.43;;;7.70;;
20431;SDS011;10375;49.136;10.366;2022-11-20T07:52:45;8.63;;;6.13;;
20431;SDS011;10375;49.136;10.366;2022-11-20T07:55:13;13.57;;;8.40;;
20431;SDS011;10375;49.136;10.366;2022-11-20T07:57:40;28.70;;;12.43;;
20431;SDS011;10375;49.136;10.366;2022-11-20T08:00:08;9.30;;;7.13;;
20431;SDS011;10375;49.136;10.366;2022-11-20T08:02:37;13.23;;;5.87;;
20431;SDS011;10375;49.136;10.366;2022-11-20T08:05:05;22.87;;;8.90;;
20431;SDS011;10375;49.136;10.366;2022-11-20T08:07:37;6.90;;;5.83;;
20431;SDS011;10375;49.136;10.366;2022-11-20T08:10:05;8.80;;;5.13;;
20431;SDS011;10375;49.136;10.366;2022-11-20T08:12:33;6.07;;;5.13;;
20431;SDS011;10375;49.136;10.366;2022-11-20T08:15:18;9.00;;;5.27;;
20431;SDS011;10375;49.136;10.366;2022-11-20T08:17:45;7.67;;;5.23;;
20431;SDS011;10375;49.136;10.366;2022-11-20T08:20:32;14.03;;;5.00;;
20431;SDS011;10375;49.136;10.366;2022-11-20T08:23:01;6.00;;;4.93;;
20431;SDS011;10375;49.136;10.366;2022-11-20T08:25:30;7.37;;;5.43;;
20431;SDS011;10375;49.136;10.366;2022-11-20T08:27:58;16.70;;;5.97;;
20431;SDS011;10375;49.136;10.366;2022-11-20T08:30:41;6.53;;;5.10;;
20431;SDS011;10375;49.136;10.366;2022-11-20T08:33:08;6.27;;;5.67;;
20431;SDS011;10375;49.136;10.366;2022-11-20T08:35:36;6.33;;;5.20;;
20431;SDS011;10375;49.136;10.366;2022-11-20T08:38:04;7.53;;;5.10;;
20431;SDS011;10375;49.136;10.366;2022-11-20T08:40:32;5.23;;;4.73;;
20431;SDS011;10375;49.136;10.366;2022-11-20T08:42:59;5.57;;;4.70;;
20431;SDS011;10375;49.136;10.366;2022-11-20T08:45:27;5.67;;;4.63;;
20431;SDS011;10375;49.136;10.366;2022-11-20T08:48:02;5.97;;;4.27;;
20431;SDS011;10375;49.136;10.366;2022-11-20T08:50:30;4.53;;;4.03;;
20431;SDS011;10375;49.136;10.366;2022-11-20T08:53:05;4.47;;;3.97;;
20431;SDS011;10375;49.136;10.366;2022-11-20T08:55:32;4.97;;;4.00;;
20431;SDS011;10375;49.136;10.366;2022-11-20T08:58:05;6.97;;;5.28;;
20431;SDS011;10375;49.136;10.366;2022-11-20T09:00:33;7.00;;;4.80;;
20431;SDS011;10375;49.136;10.366;2022-11-20T09:03:01;7.10;;;3.87;;
20431;SDS011;10375;49.136;10.366;2022-11-20T09:05:28;7.33;;;4.57;;
20431;SDS011;10375;49.136;10.366;2022-11-20T09:07:58;7.80;;;4.33;;
20431;SDS011;10375;49.136;10.366;2022-11-20T09:10:26;7.73;;;4.67;;
20431;SDS011;10375;49.136;10.366;2022-11-20T09:12:53;4.63;;;4.00;;
20431;SDS011;10375;49.136;10.366;2022-11-20T09:15:24;5.67;;;4.57;;
20431;SDS011;10375;49.136;10.366;2022-11-20T09:17:55;4.47;;;4.00;;
20431;SDS011;10375;49.136;10.366;2022-11-20T09:20:31;4.83;;;4.37;;
20431;SDS011;10375;49.136;10.366;2022-11-20T09:22:58;3.97;;;3.37;;
20431;SDS011;10375;49.136;10.366;2022-11-20T09:25:25;11.07;;;6.03;;
20431;SDS011;10375;49.136;10.366;2022-11-20T09:27:56;4.43;;;3.40;;
20431;SDS011;10375;49.136;10.366;2022-11-20T09:30:24;7.40;;;3.43;;
20431;SDS011;10375;49.136;10.366;2022-11-20T09:32:52;4.93;;;4.10;;
20431;SDS011;10375;49.136;10.366;2022-11-20T09:35:19;20.60;;;10.60;;
20431;SDS011;10375;49.136;10.366;2022-11-20T09:37:46;9.97;;;5.73;;
20431;SDS011;10375;49.136;10.366;2022-11-20T09:40:26;4.67;;;3.77;;
20431;SDS011;10375;49.136;10.366;2022-11-20T09:42:57;4.10;;;3.63;;
20431;SDS011;10375;49.136;10.366;2022-11-20T09:48:19;9.77;;;6.50;;
20431;SDS011;10375;49.136;10.366;2022-11-20T09:53:39;3.87;;;3.47;;
20431;SDS011;10375;49.136;10.366;2022-11-20T09:56:17;6.00;;;4.40;;
20431;SDS011;10375;49.136;10.366;2022-11-20T09:58:49;4.37;;;3.97;;
20431;SDS011;10375;49.136;10.366;2022-11-20T10:01:18;6.27;;;4.53;;
20431;SDS011;10375;49.136;10.366;2022-11-20T10:06:44;4.77;;;3.77;;
20431;SDS011;10375;49.136;10.366;2022-11-20T10:09:53;6.03;;;3.97;;
20431;SDS011;10375;49.136;10.366;2022-11-20T10:17:58;3.23;;;2.90;;
20431;SDS011;10375;49.136;10.366;2022-11-20T10:20:52;12.73;;;8.70;;
20431;SDS011;10375;49.136;10.366;2022-11-20T10:23:47;4.50;;;3.63;;
20431;SDS011;10375;49.136;10.366;2022-11-20T10:29:19;3.10;;;2.83;;
20431;SDS011;10375;49.136;10.366;2022-11-20T10:31:54;10.20;;;6.07;;
20431;SDS011;10375;49.136;10.366;2022-11-20T10:34:28;13.77;;;9.00;;
20431;SDS011;10375;49.136;10.366;2022-11-20T10:37:26;3.63;;;3.03;;
20431;SDS011;10375;49.136;10.366;2022-11-20T10:39:57;4.20;;;3.10;;
20431;SDS011;10375;49.136;10.366;2022-11-20T10:42:48;3.77;;;2.97;;
20431;SDS011;10375;49.136;10.366;2022-11-20T10:47:54;7.33;;;3.33;;
20431;SDS011;10375;49.136;10.366;2022-11-20T10:50:34;2.93;;;2.47;;
20431;SDS011;10375;49.136;10.366;2022-11-20T10:53:16;5.67;;;3.47;;
20431;SDS011;10375;49.136;10.366;2022-11-20T10:56:26;3.40;;;3.00;;
20431;SDS011;10375;49.136;10.366;2022-11-20T11:04:51;2.73;;;2.50;;
20431;SDS011;10375;49.136;10.366;2022-11-20T11:07:38;5.17;;;2.60;;
20431;SDS011;10375;49.136;10.366;2022-11-20T11:12:59;2.50;;;2.27;;
20431;SDS011;10375;49.136;10.366;2022-11-20T11:15:35;3.40;;;2.53;;
20431;SDS011;10375;49.136;10.366;2022-11-20T11:18:05;3.13;;;2.70;;
20431;SDS011;10375;49.136;10.366;2022-11-20T11:20:35;3.27;;;2.67;;
20431;SDS011;10375;49.136;10.366;2022-11-20T11:23:03;5.83;;;2.80;;
20431;SDS011;10375;49.136;10.366;2022-11-20T11:25:31;7.70;;;3.23;;
20431;SDS011;10375;49.136;10.366;2022-11-20T11:30:46;3.83;;;2.93;;
20431;SDS011;10375;49.136;10.366;2022-11-20T11:33:19;3.67;;;2.90;;
20431;SDS011;10375;49.136;10.366;2022-11-20T11:35:59;3.10;;;2.80;;
20431;SDS011;10375;49.136;10.366;2022-11-20T11:38:32;3.50;;;3.00;;
20431;SDS011;10375;49.136;10.366;2022-11-20T11:41:03;4.43;;;3.17;;
20431;SDS011;10375;49.136;10.366;2022-11-20T11:43:32;4.30;;;3.50;;
20431;SDS011;10375;49.136;10.366;2022-11-20T11:49:11;4.63;;;3.70;;
20431;SDS011;10375;49.136;10.366;2022-11-20T11:54:39;5.17;;;4.67;;
20431;SDS011;10375;49.136;10.366;2022-11-20T11:57:20;5.57;;;4.60;;
20431;SDS011;10375;49.136;10.366;2022-11-20T12:00:16;6.20;;;4.00;;
20431;SDS011;10375;49.136;10.366;2022-11-20T12:13:02;4.83;;;4.33;;
20431;SDS011;10375;49.136;10.366;2022-11-20T12:15:37;4.37;;;3.97;;
20431;SDS011;10375;49.136;10.366;2022-11-20T12:18:09;4.53;;;4.13;;
20431;SDS011;10375;49.136;10.366;2022-11-20T12:20:45;4.57;;;4.17;;
20431;SDS011;10375;49.136;10.366;2022-11-20T12:32:19;6.30;;;4.63;;
20431;SDS011;10375;49.136;10.366;2022-11-20T12:40:28;4.87;;;4.13;;
20431;SDS011;10375;49.136;10.366;2022-11-20T12:43:21;4.90;;;4.37;;
20431;SDS011;10375;49.136;10.366;2022-11-20T12:57:23;4.87;;;3.87;;
20431;SDS011;10375;49.136;10.366;2022-11-20T13:00:09;5.90;;;3.70;;
20431;SDS011;10375;49.136;10.366;2022-11-20T13:02:55;4.33;;;3.63;;
20431;SDS011;10375;49.136;10.366;2022-11-20T13:08:09;4.60;;;3.73;;
20431;SDS011;10375;49.136;10.366;2022-11-20T13:10:56;4.40;;;3.80;;
20431;SDS011;10375;49.136;10.366;2022-11-20T13:19:04;3.57;;;3.27;;
20431;SDS011;10375;49.136;10.366;2022-11-20T13:21:43;5.37;;;4.00;;
20431;SDS011;10375;49.136;10.366;2022-11-20T13:26:46;3.77;;;3.20;;
20431;SDS011;10375;49.136;10.366;2022-11-20T13:29:18;4.87;;;3.43;;
20431;SDS011;10375;49.136;10.366;2022-11-20T13:31:46;10.83;;;4.97;;
20431;SDS011;10375;49.136;10.366;2022-11-20T13:34:24;7.63;;;5.03;;
20431;SDS011;10375;49.136;10.366;2022-11-20T13:36:53;3.93;;;3.40;;
20431;SDS011;10375;49.136;10.366;2022-11-20T13:44:43;5.00;;;3.67;;
20431;SDS011;10375;49.136;10.366;2022-11-20T13:47:21;4.53;;;3.57;;
20431;SDS011;10375;49.136;10.366;2022-11-20T13:49:51;6.30;;;3.63;;
20431;SDS011;10375;49.136;10.366;2022-11-20T13:57:52;4.63;;;3.47;;
20431;SDS011;10375;49.136;10.366;2022-11-20T14:00:43;6.80;;;3.33;;
20431;SDS011;10375;49.136;10.366;2022-11-20T14:03:18;6.03;;;3.50;;
20431;SDS011;10375;49.136;10.366;2022-11-20T14:06:12;5.50;;;3.33;;
20431;SDS011;10375;49.136;10.366;2022-11-20T14:08:47;5.40;;;3.90;;
20431;SDS011;10375;49.136;10.366;2022-11-20T14:11:24;5.20;;;3.90;;
20431;SDS011;10375;49.136;10.366;2022-11-20T14:16:43;5.90;;;4.27;;
20431;SDS011;10375;49.136;10.366;2022-11-20T14:22:07;4.70;;;3.93;;
20431;SDS011;10375;49.136;10.366;2022-11-20T14:24:37;6.87;;;4.10;;
20431;SDS011;10375;49.136;10.366;2022-11-20T14:27:04;7.37;;;3.97;;
20431;SDS011;10375;49.136;10.366;2022-11-20T14:29:35;5.57;;;3.90;;
20431;SDS011;10375;49.136;10.366;2022-11-20T14:32:04;5.93;;;3.70;;
20431;SDS011;10375;49.136;10.366;2022-11-20T14:34:32;3.93;;;3.20;;
20431;SDS011;10375;49.136;10.366;2022-11-20T14:37:04;4.07;;;2.83;;
20431;SDS011;10375;49.136;10.366;2022-11-20T14:39:42;8.23;;;4.40;;
20431;SDS011;10375;49.136;10.366;2022-11-20T14:42:25;5.17;;;2.80;;
20431;SDS011;10375;49.136;10.366;2022-11-20T14:44:55;11.70;;;3.93;;
20431;SDS011;10375;49.136;10.366;2022-11-20T14:47:26;31.23;;;4.73;;
20431;SDS011;10375;49.136;10.366;2022-11-20T14:49:56;8.77;;;4.50;;
20431;SDS011;10375;49.136;10.366;2022-11-20T14:52:26;8.23;;;4.20;;
20431;SDS011;10375;49.136;10.366;2022-11-20T14:54:55;5.50;;;3.50;;
20431;SDS011;10375;49.136;10.366;2022-11-20T14:57:26;7.03;;;4.83;;
20431;SDS011;10375;49.136;10.366;2022-11-20T15:00:06;4.03;;;3.07;;
20431;SDS011;10375;49.136;10.366;2022-11-20T15:02:45;4.87;;;3.13;;
20431;SDS011;10375;49.136;10.366;2022-11-20T15:05:13;5.80;;;3.43;;
20431;SDS011;10375;49.136;10.366;2022-11-20T15:07:43;10.87;;;7.23;;
20431;SDS011;10375;49.136;10.366;2022-11-20T15:12:53;7.93;;;4.33;;
20431;SDS011;10375;49.136;10.366;2022-11-20T15:15:24;16.70;;;3.40;;
20431;SDS011;10375;49.136;10.366;2022-11-20T15:17:58;7.57;;;3.50;;
20431;SDS011;10375;49.136;10.366;2022-11-20T15:20:27;21.03;;;4.07;;
20431;SDS011;10375;49.136;10.366;2022-11-20T15:22:56;6.57;;;4.17;;
20431;SDS011;10375;49.136;10.366;2022-11-20T15:25:23;10.07;;;4.27;;
20431;SDS011;10375;49.136;10.366;2022-11-20T15:27:52;6.40;;;3.70;;
20431;SDS011;10375;49.136;10.366;2022-11-20T15:30:23;9.30;;;3.20;;
20431;SDS011;10375;49.136;10.366;2022-11-20T15:32:51;35.13;;;5.03;;
20431;SDS011;10375;49.136;10.366;2022-11-20T15:35:21;6.80;;;2.50;;
20431;SDS011;10375;49.136;10.366;2022-11-20T15:37:48;6.50;;;2.80;;
20431;SDS011;10375;49.136;10.366;2022-11-20T15:40:15;7.70;;;2.97;;
20431;SDS011;10375;49.136;10.366;2022-11-20T15:42:42;8.47;;;3.90;;
20431;SDS011;10375;49.136;10.366;2022-11-20T15:48:11;9.23;;;4.20;;
20431;SDS011;10375;49.136;10.366;2022-11-20T15:53:24;7.00;;;3.03;;
20431;SDS011;10375;49.136;10.366;2022-11-20T15:55:51;28.57;;;16.37;;
20431;SDS011;10375;49.136;10.366;2022-11-20T15:58:18;51.60;;;26.00;;
20431;SDS011;10375;49.136;10.366;2022-11-20T16:00:45;22.60;;;11.90;;
20431;SDS011;10375;49.136;10.366;2022-11-20T16:03:13;10.60;;;6.23;;
20431;SDS011;10375;49.136;10.366;2022-11-20T16:05:41;8.30;;;3.83;;
20431;SDS011;10375;49.136;10.366;2022-11-20T16:08:08;10.00;;;5.77;;
20431;SDS011;10375;49.136;10.366;2022-11-20T16:10:38;9.23;;;6.37;;
20431;SDS011;10375;49.136;10.366;2022-11-20T16:13:12;17.80;;;11.43;;
20431;SDS011;10375;49.136;10.366;2022-11-20T16:16:07;22.13;;;13.87;;
20431;SDS011;10375;49.136;10.366;2022-11-20T16:18:38;8.07;;;5.40;;
20431;SDS011;10375;49.136;10.366;2022-11-20T16:21:10;7.03;;;4.37;;
20431;SDS011;10375;49.136;10.366;2022-11-20T16:23:38;8.03;;;4.20;;
20431;SDS011;10375;49.136;10.366;2022-11-20T16:26:11;23.60;;;6.90;;
20431;SDS011;10375;49.136;10.366;2022-11-20T16:28:39;36.73;;;22.10;;
20431;SDS011;10375;49.136;10.366;2022-11-20T16:31:08;34.37;;;23.23;;
20431;SDS011;10375;49.136;10.366;2022-11-20T16:33:43;20.17;;;12.70;;
20431;SDS011;10375;49.136;10.366;2022-11-20T16:36:20;15.67;;;7.30;;
20431;SDS011;10375;49.136;10.366;2022-11-20T16:38:51;5.77;;;3.57;;
20431;SDS011;10375;49.136;10.366;2022-11-20T16:43:58;14.27;;;9.30;;
20431;SDS011;10375;49.136;10.366;2022-11-20T16:46:28;19.57;;;9.00;;
20431;SDS011;10375;49.136;10.366;2022-11-20T16:48:58;18.87;;;11.10;;
20431;SDS011;10375;49.136;10.366;2022-11-20T16:51:27;21.90;;;12.43;;
20431;SDS011;10375;49.136;10.366;2022-11-20T16:53:55;23.57;;;10.77;;